Time;durP1;ratioP1;P1;durP2;ratioP2;P2;SDS_P1;SDS_P2;PMS_P1;PMS_P2;Temp;Humidity;BMP_temperature;BMP_pressure;BME280_temperature;BME280_humidity;BME280_pressure;Samples;Min_cycle;Max_cycle;Signal;HPM_P1;HPM_P2
2022/03/14 00:02:02;;;;;;;75.80;33.55;;;;;;;-2.55;96.60;98833.03;5075372;28;20039;-86
2022/03/14 00:04:28;;;;;;;74.35;33.90;;;;;;;-2.56;95.55;98833.88;5065245;28;20028;-86
2022/03/14 00:06:55;;;;;;;75.50;27.90;;;;;;;-2.73;96.06;98810.13;5058121;28;20040;-87
2022/03/14 00:09:20;;;;;;;63.38;29.00;;;;;;;-2.64;96.65;98833.78;5060961;28;20036;-88
2022/03/14 00:11:46;;;;;;;68.30;30.40;;;;;;;-2.67;97.18;98818.03;5075486;28;20035;-87
2022/03/14 00:14:12;;;;;;;59.92;29.35;;;;;;;-2.67;96.86;98817.16;5072217;28;20519;-88
2022/03/14 00:16:45;;;;;;;60.88;28.95;;;;;;;-2.57;96.50;98824.25;5069742;28;20498;-86
2022/03/14 00:19:12;;;;;;;74.38;33.33;;;;;;;-2.57;96.82;98838.25;5074640;28;20067;-87
2022/03/14 00:21:39;;;;;;;71.47;31.95;;;;;;;-2.60;95.75;98842.56;5068056;28;20093;-87
2022/03/14 00:24:07;;;;;;;63.08;29.13;;;;;;;-2.50;96.14;98847.91;5067838;28;20435;-87
2022/03/14 00:26:33;;;;;;;70.22;29.80;;;;;;;-2.50;96.73;98854.91;5068895;28;20024;-87
2022/03/14 00:28:59;;;;;;;55.78;25.90;;;;;;;-2.45;96.23;98858.44;5065258;28;20060;-86
2022/03/14 00:31:24;;;;;;;87.28;38.15;;;;;;;-2.55;96.72;98843.50;5062030;28;20117;-87
2022/03/14 00:33:51;;;;;;;94.15;41.22;;;;;;;-2.37;98.91;98862.03;5056316;28;20036;-87
2022/03/14 00:36:16;;;;;;;96.15;41.38;;;;;;;-2.38;98.29;98866.38;5055544;28;20404;-87
2022/03/14 00:38:42;;;;;;;95.18;40.35;;;;;;;-2.32;99.10;98865.56;5054984;28;20036;-87
2022/03/14 00:41:09;;;;;;;100.65;41.72;;;;;;;-2.26;98.56;98863.00;5065609;28;20097;-88
2022/03/14 00:43:35;;;;;;;82.43;33.72;;;;;;;-2.56;97.82;98811.19;5062253;28;20492;-87
2022/03/14 00:46:02;;;;;;;66.45;28.42;;;;;;;-2.31;97.59;98867.31;5066126;28;20042;-88
2022/03/14 00:48:28;;;;;;;62.92;29.33;;;;;;;-2.54;96.49;98824.28;5073425;28;20027;-87
2022/03/14 00:50:54;;;;;;;54.47;25.00;;;;;;;-2.19;96.25;98877.91;5055572;28;20097;-88
2022/03/14 00:53:20;;;;;;;52.55;22.85;;;;;;;-2.22;95.21;98863.06;5056000;28;20020;-87
2022/03/14 00:55:46;;;;;;;43.03;20.70;;;;;;;-2.21;94.93;98859.56;5064270;28;20495;-88
2022/03/14 00:58:12;;;;;;;44.10;19.88;;;;;;;-2.27;93.73;98853.38;5071731;28;20028;-86
2022/03/14 01:00:38;;;;;;;56.05;21.60;;;;;;;-2.18;92.81;98873.56;5068497;28;20024;-87
2022/03/14 01:03:04;;;;;;;34.33;17.08;;;;;;;-2.21;92.77;98866.53;5072757;28;20472;-88
2022/03/14 01:05:30;;;;;;;37.97;17.50;;;;;;;-2.28;92.11;98859.50;5074394;28;20110;-87
2022/03/14 01:07:55;;;;;;;36.80;17.27;;;;;;;-2.33;92.42;98869.03;5081960;28;20536;-88
2022/03/14 01:10:22;;;;;;;38.35;18.58;;;;;;;-2.25;93.50;98884.00;5064804;28;20028;-87
2022/03/14 01:12:48;;;;;;;50.40;21.05;;;;;;;-2.36;94.18;98863.75;5075961;28;20114;-87
2022/03/14 01:15:14;;;;;;;42.33;20.20;;;;;;;-2.37;94.92;98862.03;5071016;28;20556;-87
2022/03/14 01:17:40;;;;;;;43.63;20.20;;;;;;;-2.27;95.34;98871.72;5067055;28;20030;-88
2022/03/14 01:20:08;;;;;;;56.35;24.23;;;;;;;-2.31;94.61;98862.94;5071599;28;20034;-88
2022/03/14 01:22:34;;;;;;;42.58;19.63;;;;;;;-2.47;95.12;98839.22;5062738;28;20036;-88
2022/03/14 01:25:01;;;;;;;52.78;23.05;;;;;;;-2.43;95.37;98846.25;5070269;28;20032;-88
2022/03/14 01:27:27;;;;;;;61.55;26.23;;;;;;;-2.21;95.36;98871.75;5060913;28;20487;-88
2022/03/14 01:29:52;;;;;;;80.45;32.95;;;;;;;-2.42;96.51;98821.78;5058877;28;20035;-87
2022/03/14 01:32:18;;;;;;;56.30;25.05;;;;;;;-2.26;94.00;98839.41;5067167;28;20035;-86
2022/03/14 01:34:43;;;;;;;48.83;22.55;;;;;;;-2.01;92.38;98872.84;5084508;28;20028;-88
2022/03/14 01:37:10;;;;;;;49.50;22.52;;;;;;;-1.91;93.00;98869.44;5066325;28;20063;-88
2022/03/14 01:39:36;;;;;;;46.80;22.00;;;;;;;-1.93;93.67;98892.13;5065052;28;20029;-88
2022/03/14 01:42:02;;;;;;;46.97;22.58;;;;;;;-2.10;92.67;98877.13;5068496;28;20136;-87
2022/03/14 01:44:28;;;;;;;43.83;22.40;;;;;;;-2.01;93.46;98887.69;5065685;28;20029;-87
2022/03/14 01:46:54;;;;;;;55.00;25.42;;;;;;;-1.90;93.50;98905.25;5054873;28;20103;-88
2022/03/14 01:49:24;;;;;;;48.08;23.00;;;;;;;-1.87;93.81;98905.28;5075824;28;20024;-87
2022/03/14 01:51:58;;;;;;;51.88;26.17;;;;;;;-1.97;93.85;98907.84;5084172;28;20029;-87
2022/03/14 01:54:24;;;;;;;45.33;23.63;;;;;;;-2.09;95.07;98884.97;5066928;28;20055;-86
2022/03/14 01:56:50;;;;;;;50.83;23.63;;;;;;;-2.11;95.67;98891.97;5062995;28;20021;-88
2022/03/14 01:59:17;;;;;;;58.70;27.42;;;;;;;-1.92;95.41;98908.75;5055480;28;20085;-87
2022/03/14 02:01:43;;;;;;;51.95;26.67;;;;;;;-2.05;95.06;98883.28;5079860;28;20043;-87
2022/03/14 02:04:08;;;;;;;62.03;26.75;;;;;;;-1.86;94.46;98909.69;5056635;28;20024;-86
2022/03/14 02:06:35;;;;;;;55.78;27.55;;;;;;;-1.73;93.74;98908.94;5081673;28;20032;-88
2022/03/14 02:09:02;;;;;;;66.90;31.90;;;;;;;-1.84;92.53;98886.06;5055801;28;20027;-87
2022/03/14 02:11:28;;;;;;;71.53;33.75;;;;;;;-1.59;92.63;98913.38;5063582;28;20141;-85
2022/03/14 02:13:54;;;;;;;89.15;39.80;;;;;;;-1.55;92.75;98915.16;5074491;28;20032;-86
2022/03/14 02:16:19;;;;;;;104.50;45.97;;;;;;;-1.79;93.34;98880.03;5067158;28;20455;-86
2022/03/14 02:18:45;;;;;;;109.35;46.78;;;;;;;-1.75;95.69;98894.91;5071332;28;20104;-86
2022/03/14 02:24:03;;;;;;;106.07;47.28;;;;;;;-1.60;96.28;98930.00;5079902;28;20040;-88
2022/03/14 02:26:29;;;;;;;104.28;47.17;;;;;;;-1.76;96.43;98919.38;5064559;28;20113;-87
2022/03/14 02:28:54;;;;;;;102.35;48.40;;;;;;;-1.89;97.74;98885.19;5056076;28;20037;-86
2022/03/14 02:31:20;;;;;;;110.25;49.30;;;;;;;-1.78;96.64;98908.00;5084570;28;20510;-87
2022/03/14 02:33:45;;;;;;;113.25;49.33;;;;;;;-1.48;96.10;98937.97;5060159;28;20024;-87
2022/03/14 02:36:11;;;;;;;113.40;48.28;;;;;;;-1.57;95.61;98930.03;5064965;28;20101;-86
2022/03/14 02:38:37;;;;;;;102.72;47.70;;;;;;;-1.52;95.43;98938.81;5065504;28;20033;-85
2022/03/14 02:41:02;;;;;;;109.43;47.10;;;;;;;-1.52;95.58;98936.19;5054713;28;20123;-87
2022/03/14 02:43:28;;;;;;;91.05;41.60;;;;;;;-1.80;96.22;98899.25;5067394;28;20115;-87
2022/03/14 02:45:54;;;;;;;84.82;39.45;;;;;;;-1.56;96.59;98942.25;5066384;28;20476;-88
2022/03/14 02:48:23;;;;;;;79.13;37.47;;;;;;;-1.39;96.60;98966.91;5066826;28;20032;-87
2022/03/14 02:50:53;;;;;;;82.63;38.05;;;;;;;-1.67;96.14;98916.84;5072446;28;20035;-87
2022/03/14 02:53:18;;;;;;;68.75;32.65;;;;;;;-1.75;96.48;98915.88;5072540;28;20035;-86
2022/03/14 02:55:44;;;;;;;72.47;34.80;;;;;;;-1.77;96.23;98921.97;5075221;28;20049;-86
2022/03/14 02:58:10;;;;;;;84.35;36.50;;;;;;;-1.65;95.89;98950.94;5082150;28;20020;-86
2022/03/14 03:00:36;;;;;;;70.75;34.60;;;;;;;-1.54;96.33;98966.78;5056713;28;20048;-87
2022/03/14 03:03:06;;;;;;;67.35;33.22;;;;;;;-1.60;96.37;98961.47;5069188;28;20511;-87
2022/03/14 03:05:34;;;;;;;68.05;33.30;;;;;;;-1.58;97.14;98971.13;5078328;28;20118;-86
2022/03/14 03:08:01;;;;;;;77.50;34.60;;;;;;;-1.73;97.57;98958.75;5067677;28;20008;-86
2022/03/14 03:10:28;;;;;;;68.68;33.60;;;;;;;-1.78;98.93;98959.53;5067002;28;20400;-86
2022/03/14 03:12:54;;;;;;;71.47;35.05;;;;;;;-1.69;99.16;98978.00;5081153;28;20055;-86
2022/03/14 03:15:19;;;;;;;73.50;34.97;;;;;;;-1.73;99.73;98979.72;5071354;28;20119;-86
2022/03/14 03:17:45;;;;;;;67.78;30.73;;;;;;;-1.77;99.96;98967.44;5076384;28;20082;-86
2022/03/14 03:20:12;;;;;;;66.78;31.33;;;;;;;-1.86;100.00;98966.47;5077996;28;20030;-87
2022/03/14 03:22:38;;;;;;;64.13;29.63;;;;;;;-1.83;100.00;98972.63;5090361;28;20071;-86
2022/03/14 03:25:05;;;;;;;67.10;30.20;;;;;;;-1.88;100.00;98963.84;5064293;28;20024;-87
2022/03/14 03:27:32;;;;;;;72.07;32.28;;;;;;;-1.81;100.00;98970.88;5059602;28;20032;-87
2022/03/14 03:29:58;;;;;;;70.93;31.30;;;;;;;-1.82;100.00;98974.41;5070620;28;20111;-74
2022/03/14 03:32:24;;;;;;;70.15;31.75;;;;;;;-1.80;100.00;98964.78;5084967;28;20025;-86
2022/03/14 03:34:50;;;;;;;71.07;33.10;;;;;;;-1.71;100.00;98980.63;5067023;28;20086;-85
2022/03/14 03:37:16;;;;;;;72.80;32.55;;;;;;;-1.85;100.00;98963.88;5059863;28;20033;-84
2022/03/14 03:39:41;;;;;;;71.13;32.45;;;;;;;-1.76;100.00;98971.84;5062218;28;20549;-85
2022/03/14 03:42:07;;;;;;;70.90;32.53;;;;;;;-1.81;100.00;98970.88;5065984;28;20024;-86
2022/03/14 03:44:34;;;;;;;68.18;32.88;;;;;;;-1.78;100.00;98978.78;5067882;28;20421;-85
2022/03/14 03:47:01;;;;;;;64.50;31.10;;;;;;;-2.05;100.00;98940.94;5068264;28;20028;-86
2022/03/14 03:49:27;;;;;;;70.82;33.15;;;;;;;-1.81;100.00;98981.38;5076003;28;20024;-86
2022/03/14 03:51:53;;;;;;;65.70;30.60;;;;;;;-1.76;100.00;98992.81;5064287;28;20411;-87
2022/03/14 03:54:19;;;;;;;67.72;32.60;;;;;;;-1.91;100.00;98966.44;5073876;28;20038;-87
2022/03/14 03:56:44;;;;;;;70.55;35.08;;;;;;;-1.85;100.00;98974.38;5066375;28;20028;-87
2022/03/14 03:59:10;;;;;;;74.13;34.50;;;;;;;-1.84;100.00;98981.34;5065780;28;20158;-87
2022/03/14 04:01:36;;;;;;;84.45;36.65;;;;;;;-1.80;100.00;98987.50;5075061;28;20034;-87
2022/03/14 04:04:02;;;;;;;79.57;36.72;;;;;;;-1.69;100.00;99002.47;5066120;28;20056;-86
2022/03/14 04:06:30;;;;;;;64.22;32.35;;;;;;;-1.79;100.00;98995.41;5068140;28;20020;-85
2022/03/14 04:08:56;;;;;;;71.82;34.05;;;;;;;-1.77;100.00;98996.28;5063899;28;20027;-86
2022/03/14 04:11:22;;;;;;;73.15;33.78;;;;;;;-1.80;100.00;98995.38;5056022;28;20085;-86
2022/03/14 04:13:51;;;;;;;72.55;33.92;;;;;;;-1.98;100.00;98971.59;5076011;28;20031;-85
2022/03/14 04:16:18;;;;;;;69.68;34.25;;;;;;;-1.76;100.00;99015.53;5061626;28;20030;-86
2022/03/14 04:18:47;;;;;;;79.72;36.97;;;;;;;-1.83;100.00;99021.56;5068754;28;20043;-86
2022/03/14 04:21:16;;;;;;;82.97;38.70;;;;;;;-1.90;100.00;99002.25;5063394;28;20042;-87
2022/03/14 04:23:42;;;;;;;79.63;37.85;;;;;;;-1.89;100.00;99017.13;5071243;28;20032;-86
2022/03/14 04:26:09;;;;;;;107.78;44.65;;;;;;;-2.19;100.00;98993.22;5065657;28;20098;-87
2022/03/14 04:28:36;;;;;;;113.18;46.22;;;;;;;-1.99;100.00;99028.38;5072692;28;20032;-86
2022/03/14 04:31:06;;;;;;;97.38;43.03;;;;;;;-2.05;100.00;99027.44;5061794;28;20470;-87
2022/03/14 04:33:32;;;;;;;108.82;39.58;;;;;;;-2.07;100.00;99040.53;5073791;28;20035;-87
2022/03/14 04:35:59;;;;;;;123.78;49.47;;;;;;;-2.17;100.00;99043.91;5058748;28;20048;-86
2022/03/14 04:38:25;;;;;;;130.05;54.10;;;;;;;-2.14;100.00;99049.16;5061496;28;20035;-86
2022/03/14 04:40:51;;;;;;;127.55;51.55;;;;;;;-2.32;100.00;99027.97;5067427;28;20028;-85
2022/03/14 04:43:17;;;;;;;118.10;49.75;;;;;;;-2.32;100.00;99044.59;5068041;28;20024;-74
2022/03/14 04:45:43;;;;;;;123.85;51.95;;;;;;;-2.37;100.00;99045.41;5060681;28;20033;-85
2022/03/14 04:48:09;;;;;;;101.45;43.92;;;;;;;-2.40;100.00;99045.34;5059528;28;20503;-85
2022/03/14 04:50:38;;;;;;;93.60;41.92;;;;;;;-2.27;100.00;99068.22;5061513;28;20028;-86
2022/03/14 04:53:05;;;;;;;92.43;43.17;;;;;;;-2.39;100.00;99052.34;5064899;28;20031;-87
2022/03/14 04:55:32;;;;;;;86.07;40.22;;;;;;;-2.28;100.00;99076.97;5068432;28;20131;-87
2022/03/14 04:57:57;;;;;;;79.95;38.53;;;;;;;-2.32;100.00;99068.16;5071306;28;20035;-85
2022/03/14 05:00:23;;;;;;;100.68;46.47;;;;;;;-2.31;100.00;99077.75;5068294;28;20170;-86
2022/03/14 05:02:49;;;;;;;99.93;44.00;;;;;;;-2.40;100.00;99067.16;5061252;28;20024;-86
2022/03/14 05:05:14;;;;;;;89.47;44.75;;;;;;;-2.28;100.00;99087.44;5075169;28;20491;-86
2022/03/14 05:07:41;;;;;;;96.97;41.40;;;;;;;-2.20;100.00;99091.91;5075353;28;20537;-86
2022/03/14 05:10:07;;;;;;;90.18;39.70;;;;;;;-2.05;100.00;99100.81;5065410;28;20027;-84
2022/03/14 05:12:34;;;;;;;97.05;42.28;;;;;;;-2.01;100.00;99100.88;5057923;28;20126;-87
2022/03/14 05:15:00;;;;;;;85.95;42.15;;;;;;;-1.95;100.00;99087.84;5074364;28;20028;-75
2022/03/14 05:17:27;;;;;;;88.88;40.30;;;;;;;-1.96;100.00;99082.59;5077828;28;20028;-85
2022/03/14 05:19:53;;;;;;;96.32;42.95;;;;;;;-1.77;100.00;99105.53;5065227;28;20555;-80
2022/03/14 05:22:19;;;;;;;104.97;45.85;;;;;;;-1.92;100.00;99066.91;5081918;28;20050;-86
2022/03/14 05:24:45;;;;;;;97.32;45.25;;;;;;;-1.59;100.00;99104.84;5068019;28;20522;-83
2022/03/14 05:27:12;;;;;;;86.53;40.92;;;;;;;-1.50;100.00;99118.06;5074419;28;20078;-82
2022/03/14 05:29:38;;;;;;;94.75;42.30;;;;;;;-1.59;100.00;99107.47;5074672;28;20020;-83
2022/03/14 05:32:04;;;;;;;90.55;41.55;;;;;;;-1.74;100.00;99088.09;5091434;28;20020;-81
2022/03/14 05:34:30;;;;;;;80.97;36.38;;;;;;;-1.28;100.00;99110.44;5074167;28;20023;-82
2022/03/14 05:36:55;;;;;;;74.50;36.03;;;;;;;-1.17;100.00;99124.53;5074286;28;20101;-82
2022/03/14 05:39:21;;;;;;;73.38;34.22;;;;;;;-1.07;98.50;99109.75;5074112;28;20020;-81
2022/03/14 05:41:47;;;;;;;75.78;35.47;;;;;;;-0.99;97.00;99134.38;5074474;28;20028;-83
2022/03/14 05:44:12;;;;;;;79.82;33.92;;;;;;;-0.89;96.76;99132.69;5077251;28;20499;-83
2022/03/14 05:46:38;;;;;;;78.70;33.78;;;;;;;-0.82;96.10;99131.88;5091686;28;20024;-82
2022/03/14 05:49:04;;;;;;;64.05;31.30;;;;;;;-0.59;93.87;99141.72;5073794;28;20119;-82
2022/03/14 05:51:33;;;;;;;69.38;32.70;;;;;;;-0.58;92.92;99140.81;5074263;28;20028;-82
2022/03/14 05:53:59;;;;;;;77.10;34.45;;;;;;;-0.36;92.35;99152.38;5091044;28;20112;-82
2022/03/14 05:56:25;;;;;;;71.97;35.75;;;;;;;-0.51;92.73;99132.97;5073237;28;20498;-82
2022/03/14 05:58:51;;;;;;;66.05;34.33;;;;;;;-0.44;93.23;99145.31;5074111;28;20028;-82
2022/03/14 06:01:17;;;;;;;71.85;35.35;;;;;;;-0.20;92.38;99148.97;5090708;28;20077;-81
2022/03/14 06:03:43;;;;;;;74.35;35.67;;;;;;;-0.38;92.16;99153.22;5073780;28;20471;-82
2022/03/14 06:06:08;;;;;;;81.38;36.00;;;;;;;-0.43;93.45;99142.66;5073816;28;20467;-81
2022/03/14 06:08:34;;;;;;;85.18;34.22;;;;;;;-0.30;93.24;99147.16;5073570;28;20214;-81
2022/03/14 06:10:59;;;;;;;113.47;48.90;;;;;;;-0.15;92.06;99157.78;5073794;28;20035;-83
2022/03/14 06:13:25;;;;;;;74.07;36.42;;;;;;;-0.01;91.21;99149.97;5090349;28;20035;-82
2022/03/14 06:15:51;;;;;;;77.45;37.33;;;;;;;-0.05;90.64;99164.84;5090473;28;20032;-82
2022/03/14 06:18:17;;;;;;;87.30;43.05;;;;;;;0.46;88.46;99150.19;5073889;28;20057;-82
2022/03/14 06:20:43;;;;;;;88.60;39.63;;;;;;;0.52;85.71;99156.34;5073744;28;20039;-82
2022/03/14 06:23:08;;;;;;;83.85;41.13;;;;;;;0.71;84.05;99167.81;5073847;28;20020;-82
2022/03/14 06:25:36;;;;;;;94.50;44.08;;;;;;;1.21;82.41;99173.19;5073232;28;20036;-83
2022/03/14 06:28:02;;;;;;;89.18;43.38;;;;;;;2.13;78.06;99167.84;5073685;28;20031;-83
2022/03/14 06:30:28;;;;;;;102.93;47.67;;;;;;;2.85;72.27;99144.69;5090621;28;20457;-83
2022/03/14 06:32:54;;;;;;;83.88;41.15;;;;;;;4.17;66.18;99117.09;5091202;28;20028;-83
2022/03/14 06:35:20;;;;;;;85.95;43.00;;;;;;;5.74;58.20;99133.38;5073850;28;20132;-83
2022/03/14 06:37:46;;;;;;;93.88;43.42;;;;;;;5.07;58.85;99151.28;5075159;28;20415;-83
2022/03/14 06:40:12;;;;;;;109.63;49.63;;;;;;;5.28;58.86;99165.09;5094660;28;20031;-83
2022/03/14 06:42:39;;;;;;;132.27;60.92;;;;;;;6.96;55.74;99151.38;5077465;28;20028;-81
2022/03/14 06:45:05;;;;;;;124.82;58.20;;;;;;;8.03;52.52;99150.53;5077406;28;20434;-82
2022/03/14 06:47:32;;;;;;;130.18;59.03;;;;;;;8.23;50.04;99123.38;5094117;28;20028;-83
2022/03/14 06:49:58;;;;;;;121.53;55.17;;;;;;;8.87;47.64;99117.09;5077650;28;20480;-83
2022/03/14 06:52:24;;;;;;;121.35;56.47;;;;;;;9.04;45.91;99113.94;5077544;28;20031;-83
2022/03/14 06:54:49;;;;;;;117.35;59.13;;;;;;;9.50;44.68;99116.03;5077134;28;20561;-82
2022/03/14 06:57:15;;;;;;;126.10;58.20;;;;;;;10.12;43.63;99114.75;5076919;28;20036;-81
2022/03/14 06:59:41;;;;;;;123.63;62.10;;;;;;;10.31;41.99;99098.97;5076895;28;20023;-81
2022/03/14 07:02:09;;;;;;;108.22;51.75;;;;;;;11.18;39.94;99105.47;5093981;28;20031;-82
2022/03/14 07:04:36;;;;;;;99.25;53.28;;;;;;;11.93;38.87;99093.44;5077326;28;20027;-83
2022/03/14 07:07:05;;;;;;;110.43;57.08;;;;;;;11.41;38.33;99086.66;5077054;28;20020;-83
2022/03/14 07:09:31;;;;;;;112.30;55.13;;;;;;;11.26;39.55;99103.34;5077040;28;20031;-83
2022/03/14 07:11:58;;;;;;;107.45;58.03;;;;;;;10.10;41.29;99105.06;5076975;28;20486;-83
2022/03/14 07:14:23;;;;;;;103.70;55.08;;;;;;;10.62;39.37;99104.06;5076918;28;20146;-83
2022/03/14 07:17:06;;;;;;;109.38;54.15;;;;;;;9.60;40.62;99120.13;5076770;28;20495;-81
2022/03/14 07:19:32;;;;;;;101.20;54.35;;;;;;;9.81;40.44;99114.09;5076510;28;20024;-82
2022/03/14 07:21:58;;;;;;;131.32;59.38;;;;;;;10.89;39.04;99100.34;5077370;28;20101;-82
2022/03/14 07:24:23;;;;;;;102.63;54.08;;;;;;;10.21;39.33;99109.13;5076659;28;20023;-83
2022/03/14 07:26:49;;;;;;;112.75;55.83;;;;;;;10.80;39.48;99116.75;5094178;28;20024;-85
2022/03/14 07:29:15;;;;;;;97.53;52.65;;;;;;;11.56;37.01;99111.09;5076669;28;20036;-85
2022/03/14 07:31:41;;;;;;;102.95;53.22;;;;;;;11.74;38.48;99105.00;5076773;28;20031;-84
2022/03/14 07:34:08;;;;;;;98.35;49.92;;;;;;;12.32;35.90;99112.31;5093418;28;20020;-84
2022/03/14 07:36:34;;;;;;;91.10;51.53;;;;;;;12.66;34.75;99097.38;5076160;28;20027;-84
2022/03/14 07:39:06;;;;;;;88.55;49.15;;;;;;;12.97;34.78;99109.34;5093429;28;20021;-84
2022/03/14 07:41:32;;;;;;;92.88;52.40;;;;;;;12.67;35.33;99116.13;5076288;28;20065;-84
2022/03/14 07:44:00;;;;;;;96.35;52.72;;;;;;;12.19;35.75;99115.59;5076209;28;20062;-84
2022/03/14 07:46:27;;;;;;;96.80;52.88;;;;;;;12.20;36.37;99126.25;5076404;28;20126;-83
2022/03/14 07:48:53;;;;;;;100.80;55.75;;;;;;;12.49;35.23;99117.78;5075997;28;20485;-84
2022/03/14 07:51:18;;;;;;;94.78;52.42;;;;;;;11.87;36.53;99117.81;5076183;28;20020;-84
2022/03/14 07:53:44;;;;;;;96.40;53.78;;;;;;;11.63;37.81;99128.69;5075637;28;20114;-84
2022/03/14 07:56:11;;;;;;;94.93;51.47;;;;;;;12.16;37.53;99119.28;5075856;28;20055;-84
2022/03/14 07:58:37;;;;;;;98.38;51.30;;;;;;;12.25;36.09;99126.03;5076121;28;20036;-84
2022/03/14 08:01:03;;;;;;;92.50;49.80;;;;;;;12.47;35.79;99108.06;5076328;28;20062;-84
2022/03/14 08:03:29;;;;;;;99.78;51.03;;;;;;;12.35;35.43;99111.31;5075999;28;20036;-84
2022/03/14 08:05:58;;;;;;;103.30;51.03;;;;;;;12.39;35.41;99116.47;5075348;28;20110;-85
2022/03/14 08:08:25;;;;;;;99.00;50.70;;;;;;;12.25;35.20;99121.56;5092822;28;20502;-85
2022/03/14 08:10:50;;;;;;;92.70;50.95;;;;;;;12.24;34.92;99118.97;5093045;28;20532;-83
2022/03/14 08:13:16;;;;;;;86.45;48.60;;;;;;;11.87;35.14;99116.97;5075988;28;20062;-84
2022/03/14 08:15:42;;;;;;;84.85;45.28;;;;;;;12.90;33.50;99117.72;5075536;28;20024;-85
2022/03/14 08:18:09;;;;;;;76.18;42.05;;;;;;;13.71;32.57;99106.69;5075576;28;20020;-83
2022/03/14 08:20:34;;;;;;;72.43;36.97;;;;;;;13.02;33.45;99117.16;5075387;28;20035;-83
2022/03/14 08:23:02;;;;;;;75.00;38.95;;;;;;;13.34;32.28;99123.75;5075384;28;20034;-84
2022/03/14 08:25:29;;;;;;;56.28;30.35;;;;;;;12.73;33.14;99112.28;5075447;28;20495;-84
2022/03/14 08:27:55;;;;;;;47.03;25.98;;;;;;;12.48;33.81;99116.06;5063584;28;20063;-84
2022/03/14 08:30:22;;;;;;;46.95;24.98;;;;;;;13.37;32.97;99124.47;5055786;28;20056;-84
2022/03/14 08:32:48;;;;;;;38.92;22.38;;;;;;;12.65;32.67;99117.09;5055275;28;20561;-84
2022/03/14 08:35:17;;;;;;;48.25;23.63;;;;;;;13.56;31.48;99122.66;5069587;28;20039;-85
2022/03/14 08:37:44;;;;;;;45.85;23.88;;;;;;;14.07;31.27;99104.84;5075657;28;20056;-84
2022/03/14 08:40:13;;;;;;;43.78;24.83;;;;;;;14.74;29.98;99090.56;5092545;28;20035;-85
2022/03/14 08:42:39;;;;;;;42.15;20.92;;;;;;;13.97;29.41;99085.59;5057512;28;20044;-83
2022/03/14 08:45:06;;;;;;;32.78;17.65;;;;;;;13.69;29.10;99087.94;5055579;28;20021;-83
2022/03/14 08:47:35;;;;;;;25.90;15.13;;;;;;;15.21;26.55;99053.78;5056227;28;20028;-85
2022/03/14 08:50:02;;;;;;;31.95;21.88;;;;;;;15.45;26.60;99057.78;5056307;28;20503;-83
2022/03/14 08:52:29;;;;;;;31.65;18.58;;;;;;;15.95;26.06;99072.88;5055156;28;20056;-83
2022/03/14 08:54:55;;;;;;;33.85;19.60;;;;;;;15.02;25.77;99048.53;5072806;28;20424;-83
2022/03/14 08:57:21;;;;;;;23.55;12.88;;;;;;;14.92;25.61;99046.47;5073205;28;20503;-83
2022/03/14 08:59:46;;;;;;;40.95;18.10;;;;;;;13.87;28.17;99081.63;5066584;28;20034;-83
2022/03/14 09:02:12;;;;;;;51.33;22.88;;;;;;;14.05;28.83;99083.41;5054609;28;20036;-83
2022/03/14 09:04:38;;;;;;;23.08;13.38;;;;;;;15.10;26.04;99073.22;5071474;28;20503;-83
2022/03/14 09:07:05;;;;;;;26.60;14.63;;;;;;;15.96;25.28;99058.44;5054749;28;20403;-83
2022/03/14 09:09:37;;;;;;;33.30;16.35;;;;;;;15.55;26.72;99053.63;5054460;28;20056;-82
2022/03/14 09:12:03;;;;;;;40.38;15.05;;;;;;;16.50;25.13;99049.66;5054908;28;20100;-84
2022/03/14 09:14:31;;;;;;;20.27;13.57;;;;;;;16.04;25.49;99048.91;5071162;28;20029;-83
2022/03/14 09:16:58;;;;;;;22.23;13.30;;;;;;;16.67;25.73;99057.63;5071044;28;20043;-84
2022/03/14 09:19:27;;;;;;;215.55;96.10;;;;;;;16.33;25.45;99049.84;5071407;28;20027;-84
2022/03/14 09:21:55;;;;;;;27.52;13.73;;;;;;;17.77;23.56;99044.16;5071526;28;20545;-82
2022/03/14 09:24:21;;;;;;;206.75;101.38;;;;;;;17.58;23.82;99037.34;5071484;28;20047;-83
2022/03/14 09:26:47;;;;;;;38.00;19.60;;;;;;;17.29;24.15;99044.63;5071286;28;20024;-83
2022/03/14 09:29:13;;;;;;;21.90;10.70;;;;;;;17.14;24.13;99040.22;5054430;28;20036;-83
2022/03/14 09:31:38;;;;;;;17.65;9.95;;;;;;;16.93;24.61;99038.88;5054113;28;20028;-81
2022/03/14 09:34:04;;;;;;;160.88;104.15;;;;;;;17.08;24.17;99052.31;5053988;28;20024;-83
2022/03/14 09:36:30;;;;;;;49.25;30.15;;;;;;;16.90;24.48;99047.19;5070548;28;20028;-83
2022/03/14 09:38:55;;;;;;;26.05;12.73;;;;;;;15.05;26.31;99042.09;5070758;28;20032;-83
2022/03/14 09:41:21;;;;;;;23.15;12.35;;;;;;;14.85;26.29;99055.84;5067837;28;20085;-82
2022/03/14 09:43:51;;;;;;;17.15;11.15;;;;;;;14.63;27.08;99062.41;5074219;28;20080;-82
2022/03/14 09:46:19;;;;;;;22.70;11.05;;;;;;;14.67;27.39;99059.53;5074356;28;20092;-83
2022/03/14 09:48:49;;;;;;;15.15;9.30;;;;;;;15.34;25.33;99059.34;5091047;28;20048;-82
2022/03/14 09:51:17;;;;;;;17.10;10.40;;;;;;;16.13;24.88;99050.16;5090937;28;20081;-82
2022/03/14 09:53:44;;;;;;;36.20;24.15;;;;;;;15.79;25.07;99042.34;5073956;28;20043;-83
2022/03/14 09:56:09;;;;;;;21.38;14.73;;;;;;;15.45;25.61;99041.59;5074102;28;20046;-82
2022/03/14 09:58:36;;;;;;;16.58;10.45;;;;;;;15.64;25.84;99042.28;5074269;28;20044;-83
2022/03/14 10:01:03;;;;;;;17.63;8.90;;;;;;;15.69;25.81;99044.72;5073857;28;20028;-82
2022/03/14 10:03:29;;;;;;;14.98;8.80;;;;;;;16.89;24.89;99045.47;5073898;28;20028;-82
2022/03/14 10:05:55;;;;;;;16.83;8.45;;;;;;;17.78;23.31;99036.91;5073490;28;20039;-82
2022/03/14 10:08:22;;;;;;;14.38;10.25;;;;;;;18.92;22.14;99027.91;5073534;28;20036;-82
2022/03/14 10:10:49;;;;;;;18.38;11.60;;;;;;;19.61;21.85;99026.47;5074239;28;20027;-83
2022/03/14 10:13:16;;;;;;;11.65;8.07;;;;;;;21.18;20.49;99034.09;5077845;28;20536;-82
2022/03/14 10:15:42;;;;;;;14.40;8.70;;;;;;;21.35;19.79;99015.38;5078272;28;20020;-83
2022/03/14 10:18:15;;;;;;;12.30;6.63;;;;;;;19.96;21.09;99027.38;5078506;28;20032;-82
2022/03/14 10:20:56;;;;;;;9.70;6.30;;;;;;;19.80;20.38;99024.09;5078604;28;20023;-83
2022/03/14 10:23:29;;;;;;;10.27;6.38;;;;;;;20.52;20.35;99016.69;5078489;28;20024;-83
2022/03/14 10:25:56;;;;;;;10.43;6.22;;;;;;;21.87;19.44;99002.88;5095223;28;20023;-83
2022/03/14 10:28:23;;;;;;;14.45;7.88;;;;;;;22.78;18.65;99006.72;5078206;28;20027;-83
2022/03/14 10:30:53;;;;;;;13.82;8.35;;;;;;;21.23;19.75;98996.44;5078340;28;20082;-83
2022/03/14 10:33:23;;;;;;;14.25;7.18;;;;;;;19.38;21.17;99013.72;5077691;28;20020;-83
2022/03/14 10:35:49;;;;;;;14.43;6.72;;;;;;;21.02;19.75;99005.34;5077610;28;20035;-84
2022/03/14 10:38:16;;;;;;;19.67;9.90;;;;;;;20.87;20.43;99003.00;5077759;28;20484;-83
2022/03/14 10:40:43;;;;;;;16.80;11.77;;;;;;;20.62;20.43;99014.97;5077832;28;20139;-83
2022/03/14 10:43:28;;;;;;;13.55;7.25;;;;;;;21.37;19.78;99005.25;5077371;28;20024;-83
2022/03/14 10:45:55;;;;;;;9.77;7.60;;;;;;;22.38;19.33;99001.16;5077485;28;20024;-84
2022/03/14 10:48:41;;;;;;;12.88;7.63;;;;;;;23.86;17.96;98997.75;5077220;28;20038;-82
2022/03/14 10:51:13;;;;;;;13.00;7.57;;;;;;;22.88;18.12;98999.47;5077914;28;20028;-83
2022/03/14 10:53:46;;;;;;;12.80;7.32;;;;;;;22.17;18.77;98988.50;5094485;28;20115;-82
2022/03/14 10:56:13;;;;;;;12.95;8.48;;;;;;;21.85;19.35;98992.09;5075473;28;20050;-81
2022/03/14 10:58:39;;;;;;;11.13;7.13;;;;;;;21.43;19.77;98984.81;5057177;28;20090;-83
2022/03/14 11:01:04;;;;;;;9.70;5.57;;;;;;;21.27;19.21;98987.06;5057405;28;20020;-84
2022/03/14 11:03:32;;;;;;;12.13;6.43;;;;;;;22.17;19.26;98981.19;5073790;28;20412;-84
2022/03/14 11:06:02;;;;;;;9.80;6.30;;;;;;;22.92;18.25;98980.94;5057531;28;20025;-83
2022/03/14 11:08:51;;;;;;;12.07;7.20;;;;;;;23.71;17.76;98974.59;5057221;28;20032;-82
2022/03/14 11:11:23;;;;;;;15.25;9.73;;;;;;;23.25;18.18;98969.72;5057614;28;20114;-82
2022/03/14 11:13:51;;;;;;;13.02;8.93;;;;;;;20.81;20.33;98977.16;5057340;28;20028;-83
2022/03/14 11:16:28;;;;;;;20.38;11.15;;;;;;;18.05;23.42;98988.09;5057000;28;20028;-82